Terminal Aerodrome Forecast
Issued by NWS

Home | Current Version | Previous Version | Text Only | Print | Product List | Glossary On
Versions: 1 2 3 4 5 6 7 8 9 10 11 12 13 14 15 16 17 18 19 20
000
FTUS41 KILN 200524
TAFLCK
TAF
KLCK 200524Z 2006/2106 10007KT P6SM -RA OVC025
      TEMPO 2007/2011 3SM RA BR OVC015
     FM201100 14007KT 3SM -RA BR OVC007
     FM201500 22008KT P6SM OVC007
     FM202100 21006KT P6SM BKN018
     FM210300 18004KT P6SM BKN007
      AMD NOT SKED=

USA.gov is the U.S. government's official web portal to all federal, state and local government web resources and services.